Adams, Oklahoma
Current Conditions -  °F | °C
As of 7:35 PM on Monday 24 Nov 2014 (Local Time) from KLBL Reporting Station
Broken Clouds Broken Clouds  
Wind Chill:   Ceiling: 8500
Heat Index:   Visibility: 10mi
Dew Point: -9°   Wind: 12mph
Humidity: 39%   Direction: 310°NW
Pressure: 30.13"   Gusts: NA
Location:  36.76°N, 101.08°W
Report Text: KLBL 250135Z AUTO 31010KT 10SM SCT080 BKN085 04/M09 A3013 RMK AO1
Loading
Personal Weather Stations






























Interactive Weather Map New forecast layout! Learn more

10-Day Weather Forecast

Advertisements
Track Severe Weather on mobile